sensor_id;sensor_type;location;lat;lon;timestamp;P1;P4;P2;P0;N10;N4;N25;N1;N05;TS
78454;SPS30;67751;51.986;5.696;2024-01-15T00:02:11;2.6;2.5;2.3;1.9;;;;31.0;22.0;
78454;SPS30;67751;51.986;5.696;2024-01-15T00:04:41;1.9;1.8;1.6;1.4;;;;33.0;19.0;
78454;SPS30;67751;51.986;5.696;2024-01-15T00:07:11;2.4;2.3;2.1;1.7;;;;34.0;18.0;
78454;SPS30;67751;51.986;5.696;2024-01-15T00:09:40;1.7;1.6;1.4;1.2;;;;35.0;18.0;
78454;SPS30;67751;51.986;5.696;2024-01-15T00:12:10;2.0;1.8;1.6;1.3;;;;37.0;17.0;
78454;SPS30;67751;51.986;5.696;2024-01-15T00:14:39;2.7;2.6;2.2;1.7;;;;41.0;14.0;
78454;SPS30;67751;51.986;5.696;2024-01-15T00:17:09;1.9;1.8;1.6;1.2;;;;44.0;12.0;
78454;SPS30;67751;51.986;5.696;2024-01-15T00:19:39;1.9;1.8;1.5;1.1;;;;45.0;12.0;
78454;SPS30;67751;51.986;5.696;2024-01-15T00:22:08;1.7;1.6;1.4;1.0;;;;47.0;11.0;
78454;SPS30;67751;51.986;5.696;2024-01-15T00:24:38;1.9;1.8;1.5;1.1;;;;50.0;11.0;
78454;SPS30;67751;51.986;5.696;2024-01-15T00:27:07;2.6;2.4;2.0;1.5;;;;52.0;11.0;
78454;SPS30;67751;51.986;5.696;2024-01-15T00:29:38;2.3;2.2;1.8;1.4;;;;52.0;11.0;
78454;SPS30;67751;51.986;5.696;2024-01-15T00:32:08;2.0;1.9;1.6;1.2;;;;54.0;11.0;
78454;SPS30;67751;51.986;5.696;2024-01-15T00:34:39;2.5;2.3;1.9;1.4;;;;55.0;11.0;
78454;SPS30;67751;51.986;5.696;2024-01-15T00:37:09;2.0;1.9;1.5;1.1;;;;55.0;11.0;
78454;SPS30;67751;51.986;5.696;2024-01-15T00:39:39;2.1;1.9;1.6;1.1;;;;55.0;11.0;
78454;SPS30;67751;51.986;5.696;2024-01-15T00:42:09;2.0;1.9;1.5;1.1;;;;57.0;11.0;
78454;SPS30;67751;51.986;5.696;2024-01-15T00:44:39;2.9;2.7;2.2;1.6;;;;58.0;11.0;
78454;SPS30;67751;51.986;5.696;2024-01-15T00:47:08;2.3;2.1;1.8;1.2;;;;58.0;12.0;
78454;SPS30;67751;51.986;5.696;2024-01-15T00:49:38;2.4;2.2;1.8;1.2;;;;59.0;13.0;
78454;SPS30;67751;51.986;5.696;2024-01-15T00:52:07;2.5;2.3;1.9;1.2;;;;58.0;15.0;
78454;SPS30;67751;51.986;5.696;2024-01-15T00:54:37;1.9;1.7;1.4;0.9;;;;59.0;16.0;
78454;SPS30;67751;51.986;5.696;2024-01-15T00:57:07;1.8;1.7;1.3;0.8;;;;60.0;16.0;
78454;SPS30;67751;51.986;5.696;2024-01-15T00:59:37;2.7;2.5;1.9;1.2;;;;61.0;16.0;
78454;SPS30;67751;51.986;5.696;2024-01-15T01:02:07;2.7;2.5;2.0;1.3;;;;61.0;19.0;
78454;SPS30;67751;51.986;5.696;2024-01-15T01:04:36;2.5;2.3;1.8;1.2;;;;61.0;21.0;
78454;SPS30;67751;51.986;5.696;2024-01-15T01:07:06;2.4;2.2;1.7;1.1;;;;61.0;22.0;
78454;SPS30;67751;51.986;5.696;2024-01-15T01:09:35;2.5;2.3;1.8;1.2;;;;61.0;25.0;
78454;SPS30;67751;51.986;5.696;2024-01-15T01:12:06;2.3;2.1;1.7;1.1;;;;60.0;27.0;
78454;SPS30;67751;51.986;5.696;2024-01-15T01:14:35;2.0;1.8;1.4;0.9;;;;62.0;26.0;
78454;SPS30;67751;51.986;5.696;2024-01-15T01:17:05;2.8;2.5;2.0;1.2;;;;62.0;28.0;
78454;SPS30;67751;51.986;5.696;2024-01-15T01:19:35;2.5;2.2;1.8;1.1;;;;60.0;34.0;
78454;SPS30;67751;51.986;5.696;2024-01-15T01:22:04;2.4;2.2;1.7;1.1;;;;60.0;34.0;
78454;SPS30;67751;51.986;5.696;2024-01-15T01:24:34;1.4;1.3;1.0;0.7;;;;60.0;36.0;
78454;SPS30;67751;51.986;5.696;2024-01-15T01:27:04;2.5;2.3;1.8;1.2;;;;59.0;38.0;
78454;SPS30;67751;51.986;5.696;2024-01-15T01:29:35;2.5;2.3;1.8;1.2;;;;59.0;40.0;
78454;SPS30;67751;51.986;5.696;2024-01-15T01:32:05;2.7;2.4;1.9;1.2;;;;59.0;42.0;
78454;SPS30;67751;51.986;5.696;2024-01-15T01:34:39;2.2;2.0;1.5;1.0;;;;56.0;56.0;
78454;SPS30;67751;51.986;5.696;2024-01-15T01:37:10;3.1;2.8;2.2;1.4;;;;55.0;56.0;
78454;SPS30;67751;51.986;5.696;2024-01-15T01:39:41;2.3;2.1;1.6;1.1;;;;55.0;53.0;
78454;SPS30;67751;51.986;5.696;2024-01-15T01:42:12;3.4;3.1;2.5;1.6;;;;55.0;57.0;
78454;SPS30;67751;51.986;5.696;2024-01-15T01:44:42;2.3;2.1;1.7;1.1;;;;56.0;56.0;
78454;SPS30;67751;51.986;5.696;2024-01-15T01:47:11;2.5;2.3;1.8;1.3;;;;58.0;51.0;
78454;SPS30;67751;51.986;5.696;2024-01-15T01:49:42;2.3;2.1;1.7;1.1;;;;63.0;41.0;
78454;SPS30;67751;51.986;5.696;2024-01-15T01:52:12;2.7;2.4;2.0;1.3;;;;64.0;41.0;
78454;SPS30;67751;51.986;5.696;2024-01-15T01:54:42;3.7;3.4;2.7;1.8;;;;72.0;30.0;
78454;SPS30;67751;51.986;5.696;2024-01-15T01:57:12;3.7;3.4;2.7;1.7;;;;75.0;29.0;
78454;SPS30;67751;51.986;5.696;2024-01-15T01:59:44;3.4;3.1;2.4;1.6;;;;78.0;26.0;
78454;SPS30;67751;51.986;5.696;2024-01-15T02:02:16;2.8;2.5;2.0;1.3;;;;78.0;27.0;
78454;SPS30;67751;51.986;5.696;2024-01-15T02:04:45;2.5;2.3;1.8;1.2;;;;78.0;28.0;
78454;SPS30;67751;51.986;5.696;2024-01-15T02:07:16;3.4;3.1;2.4;1.5;;;;77.0;29.0;
78454;SPS30;67751;51.986;5.696;2024-01-15T02:09:46;2.8;2.5;2.0;1.2;;;;77.0;31.0;
78454;SPS30;67751;51.986;5.696;2024-01-15T02:12:16;4.8;4.3;3.3;1.9;;;;77.0;31.0;
78454;SPS30;67751;51.986;5.696;2024-01-15T02:14:46;3.3;3.0;2.2;1.3;;;;79.0;29.0;
78454;SPS30;67751;51.986;5.696;2024-01-15T02:17:16;2.8;2.6;2.0;1.2;;;;78.0;30.0;
78454;SPS30;67751;51.986;5.696;2024-01-15T02:19:45;3.9;3.5;2.7;1.5;;;;78.0;31.0;
78454;SPS30;67751;51.986;5.696;2024-01-15T02:22:14;4.8;4.3;3.2;1.9;;;;74.0;41.0;
78454;SPS30;67751;51.986;5.696;2024-01-15T02:24:44;4.1;3.6;2.7;1.5;;;;74.0;41.0;
78454;SPS30;67751;51.986;5.696;2024-01-15T02:27:14;3.0;2.7;2.1;1.2;;;;71.0;51.0;
78454;SPS30;67751;51.986;5.696;2024-01-15T02:29:44;3.6;3.2;2.5;1.4;;;;69.0;55.0;
78454;SPS30;67751;51.986;5.696;2024-01-15T02:32:14;3.9;3.5;2.7;1.6;;;;70.0;51.0;
78454;SPS30;67751;51.986;5.696;2024-01-15T02:34:46;3.0;2.7;2.1;1.2;;;;78.0;39.0;
78454;SPS30;67751;51.986;5.696;2024-01-15T02:37:15;3.8;3.4;2.6;1.5;;;;81.0;38.0;
78454;SPS30;67751;51.986;5.696;2024-01-15T02:39:45;3.6;3.2;2.5;1.5;;;;87.0;35.0;
78454;SPS30;67751;51.986;5.696;2024-01-15T02:42:14;4.3;3.9;3.0;1.8;;;;95.0;29.0;
78454;SPS30;67751;51.986;5.696;2024-01-15T02:44:44;3.6;3.3;2.5;1.5;;;;108.0;19.0;
78454;SPS30;67751;51.986;5.696;2024-01-15T02:47:15;3.4;3.1;2.4;1.4;;;;116.0;14.0;
78454;SPS30;67751;51.986;5.696;2024-01-15T02:49:45;3.6;3.2;2.4;1.4;;;;117.0;15.0;
78454;SPS30;67751;51.986;5.696;2024-01-15T02:52:14;4.5;4.0;3.0;1.7;;;;121.0;14.0;
78454;SPS30;67751;51.986;5.696;2024-01-15T02:54:44;4.2;3.7;2.8;1.6;;;;122.0;13.0;
78454;SPS30;67751;51.986;5.696;2024-01-15T02:57:14;4.1;3.6;2.7;1.6;;;;123.0;12.0;
78454;SPS30;67751;51.986;5.696;2024-01-15T02:59:43;5.2;4.6;3.4;1.9;;;;120.0;14.0;
78454;SPS30;67751;51.986;5.696;2024-01-15T03:02:13;3.3;3.0;2.2;1.2;;;;119.0;14.0;
78454;SPS30;67751;51.986;5.696;2024-01-15T03:04:44;4.9;4.4;3.2;1.8;;;;115.0;16.0;
78454;SPS30;67751;51.986;5.696;2024-01-15T03:07:15;3.6;3.2;2.4;1.4;;;;112.0;18.0;
78454;SPS30;67751;51.986;5.696;2024-01-15T03:09:47;4.1;3.7;2.8;1.6;;;;104.0;24.0;
78454;SPS30;67751;51.986;5.696;2024-01-15T03:12:17;3.2;2.8;2.1;1.2;;;;103.0;26.0;
78454;SPS30;67751;51.986;5.696;2024-01-15T03:14:47;4.1;3.6;2.8;1.6;;;;98.0;31.0;
78454;SPS30;67751;51.986;5.696;2024-01-15T03:17:16;2.3;2.1;1.6;0.9;;;;101.0;29.0;
78454;SPS30;67751;51.986;5.696;2024-01-15T03:19:46;2.4;2.2;1.7;1.0;;;;105.0;26.0;
78454;SPS30;67751;51.986;5.696;2024-01-15T03:22:16;2.8;2.5;1.8;1.0;;;;109.0;25.0;
78454;SPS30;67751;51.986;5.696;2024-01-15T03:24:46;2.2;2.0;1.5;0.8;;;;110.0;25.0;
78454;SPS30;67751;51.986;5.696;2024-01-15T03:27:16;3.5;3.1;2.3;1.3;;;;116.0;23.0;
78454;SPS30;67751;51.986;5.696;2024-01-15T03:29:45;3.0;2.7;2.0;1.1;;;;118.0;22.0;
78454;SPS30;67751;51.986;5.696;2024-01-15T03:32:15;2.4;2.1;1.6;0.9;;;;121.0;21.0;
78454;SPS30;67751;51.986;5.696;2024-01-15T03:34:45;2.6;2.4;1.8;1.0;;;;119.0;23.0;
78454;SPS30;67751;51.986;5.696;2024-01-15T03:37:15;3.3;2.9;2.2;1.2;;;;115.0;28.0;
78454;SPS30;67751;51.986;5.696;2024-01-15T03:39:44;3.1;2.7;2.1;1.2;;;;116.0;27.0;
78454;SPS30;67751;51.986;5.696;2024-01-15T03:42:14;2.9;2.5;1.9;1.0;;;;114.0;29.0;
78454;SPS30;67751;51.986;5.696;2024-01-15T03:44:44;2.5;2.3;1.7;0.9;;;;112.0;31.0;
78454;SPS30;67751;51.986;5.696;2024-01-15T03:47:14;2.7;2.5;1.9;1.1;;;;112.0;31.0;
78454;SPS30;67751;51.986;5.696;2024-01-15T03:49:43;2.6;2.3;1.7;1.0;;;;111.0;32.0;
78454;SPS30;67751;51.986;5.696;2024-01-15T03:52:13;3.0;2.7;2.0;1.1;;;;111.0;32.0;
78454;SPS30;67751;51.986;5.696;2024-01-15T03:54:42;2.6;2.3;1.7;1.0;;;;111.0;33.0;
78454;SPS30;67751;51.986;5.696;2024-01-15T03:57:12;3.0;2.7;2.0;1.1;;;;105.0;43.0;
78454;SPS30;67751;51.986;5.696;2024-01-15T03:59:42;2.1;1.9;1.4;0.8;;;;98.0;54.0;
78454;SPS30;67751;51.986;5.696;2024-01-15T04:02:14;3.3;3.0;2.3;1.3;;;;93.0;64.0;
78454;SPS30;67751;51.986;5.696;2024-01-15T04:04:44;2.7;2.4;1.8;1.1;;;;90.0;68.0;
78454;SPS30;67751;51.986;5.696;2024-01-15T04:07:13;3.5;3.1;2.3;1.3;;;;90.0;64.0;
78454;SPS30;67751;51.986;5.696;2024-01-15T04:09:43;3.7;3.3;2.5;1.5;;;;98.0;52.0;
78454;SPS30;67751;51.986;5.696;2024-01-15T04:12:12;3.2;2.9;2.2;1.3;;;;105.0;45.0;
78454;SPS30;67751;51.986;5.696;2024-01-15T04:14:42;4.6;4.2;3.2;1.9;;;;104.0;51.0;
78454;SPS30;67751;51.986;5.696;2024-01-15T04:17:11;3.3;2.9;2.3;1.4;;;;103.0;53.0;
78454;SPS30;67751;51.986;5.696;2024-01-15T04:19:41;2.7;2.5;1.9;1.2;;;;103.0;52.0;
78454;SPS30;67751;51.986;5.696;2024-01-15T04:22:13;2.3;2.0;1.6;1.0;;;;101.0;52.0;
78454;SPS30;67751;51.986;5.696;2024-01-15T04:24:43;2.9;2.6;2.0;1.2;;;;98.0;52.0;
78454;SPS30;67751;51.986;5.696;2024-01-15T04:27:12;2.4;2.2;1.7;1.1;;;;99.0;45.0;
78454;SPS30;67751;51.986;5.696;2024-01-15T04:29:43;2.8;2.5;2.0;1.3;;;;99.0;41.0;
78454;SPS30;67751;51.986;5.696;2024-01-15T04:32:14;2.8;2.5;2.0;1.3;;;;94.0;46.0;
78454;SPS30;67751;51.986;5.696;2024-01-15T04:34:44;1.9;1.7;1.4;0.9;;;;92.0;49.0;
78454;SPS30;67751;51.986;5.696;2024-01-15T04:37:14;2.4;2.2;1.7;1.1;;;;92.0;46.0;
78454;SPS30;67751;51.986;5.696;2024-01-15T04:39:44;2.2;2.0;1.6;0.9;;;;93.0;43.0;
78454;SPS30;67751;51.986;5.696;2024-01-15T04:42:14;2.9;2.6;2.0;1.2;;;;93.0;43.0;
78454;SPS30;67751;51.986;5.696;2024-01-15T04:44:43;2.7;2.4;1.9;1.2;;;;93.0;43.0;
78454;SPS30;67751;51.986;5.696;2024-01-15T04:47:13;2.4;2.2;1.7;1.1;;;;85.0;59.0;
78454;SPS30;67751;51.986;5.696;2024-01-15T04:49:42;2.4;2.2;1.8;1.1;;;;84.0;59.0;
78454;SPS30;67751;51.986;5.696;2024-01-15T04:52:12;3.1;2.8;2.2;1.4;;;;85.0;57.0;
78454;SPS30;67751;51.986;5.696;2024-01-15T04:54:41;2.7;2.5;1.9;1.2;;;;85.0;55.0;
78454;SPS30;67751;51.986;5.696;2024-01-15T04:57:11;2.7;2.4;1.9;1.2;;;;88.0;50.0;
78454;SPS30;67751;51.986;5.696;2024-01-15T04:59:40;3.2;2.8;2.2;1.3;;;;89.0;48.0;
78454;SPS30;67751;51.986;5.696;2024-01-15T05:02:12;2.5;2.3;1.7;1.0;;;;88.0;51.0;
78454;SPS30;67751;51.986;5.696;2024-01-15T05:04:41;2.7;2.4;1.9;1.1;;;;85.0;59.0;
78454;SPS30;67751;51.986;5.696;2024-01-15T05:07:11;2.7;2.5;1.9;1.2;;;;84.0;59.0;
78454;SPS30;67751;51.986;5.696;2024-01-15T05:09:40;3.1;2.8;2.1;1.3;;;;84.0;59.0;
78454;SPS30;67751;51.986;5.696;2024-01-15T05:12:10;3.0;2.7;2.1;1.2;;;;83.0;60.0;
78454;SPS30;67751;51.986;5.696;2024-01-15T05:14:40;2.9;2.6;2.0;1.2;;;;78.0;74.0;
78454;SPS30;67751;51.986;5.696;2024-01-15T05:17:10;2.9;2.6;2.0;1.2;;;;77.0;72.0;
78454;SPS30;67751;51.986;5.696;2024-01-15T05:19:39;3.1;2.8;2.2;1.3;;;;77.0;70.0;
78454;SPS30;67751;51.986;5.696;2024-01-15T05:22:09;2.5;2.2;1.7;1.1;;;;77.0;69.0;
78454;SPS30;67751;51.986;5.696;2024-01-15T05:24:38;2.6;2.3;1.8;1.1;;;;76.0;71.0;
78454;SPS30;67751;51.986;5.696;2024-01-15T05:27:08;2.5;2.3;1.8;1.1;;;;79.0;61.0;
78454;SPS30;67751;51.986;5.696;2024-01-15T05:29:39;2.6;2.4;1.9;1.2;;;;82.0;54.0;
78454;SPS30;67751;51.986;5.696;2024-01-15T05:32:09;2.1;1.9;1.5;1.0;;;;88.0;45.0;
78454;SPS30;67751;51.986;5.696;2024-01-15T05:34:38;1.6;1.5;1.2;0.7;;;;89.0;45.0;
78454;SPS30;67751;51.986;5.696;2024-01-15T05:37:08;2.2;2.0;1.6;1.0;;;;93.0;38.0;
78454;SPS30;67751;51.986;5.696;2024-01-15T05:39:37;1.9;1.7;1.4;0.9;;;;93.0;38.0;
78454;SPS30;67751;51.986;5.696;2024-01-15T05:42:07;1.8;1.7;1.3;0.9;;;;102.0;27.0;
78454;SPS30;67751;51.986;5.696;2024-01-15T05:44:37;1.5;1.3;1.1;0.7;;;;102.0;28.0;
78454;SPS30;67751;51.986;5.696;2024-01-15T05:47:07;2.1;1.9;1.5;1.0;;;;101.0;30.0;
78454;SPS30;67751;51.986;5.696;2024-01-15T05:49:37;1.6;1.5;1.2;0.8;;;;100.0;31.0;
78454;SPS30;67751;51.986;5.696;2024-01-15T05:52:07;1.7;1.6;1.3;0.8;;;;99.0;31.0;
78454;SPS30;67751;51.986;5.696;2024-01-15T05:54:37;1.7;1.6;1.3;0.8;;;;100.0;30.0;
78454;SPS30;67751;51.986;5.696;2024-01-15T05:57:06;2.1;1.9;1.6;1.1;;;;102.0;26.0;
78454;SPS30;67751;51.986;5.696;2024-01-15T05:59:36;1.8;1.7;1.4;0.9;;;;99.0;28.0;
78454;SPS30;67751;51.986;5.696;2024-01-15T06:02:05;1.8;1.7;1.4;1.0;;;;91.0;34.0;
78454;SPS30;67751;51.986;5.696;2024-01-15T06:04:35;1.4;1.3;1.1;0.8;;;;89.0;36.0;
78454;SPS30;67751;51.986;5.696;2024-01-15T06:07:05;1.5;1.4;1.2;0.9;;;;91.0;34.0;
78454;SPS30;67751;51.986;5.696;2024-01-15T06:09:36;1.3;1.2;1.0;0.8;;;;94.0;28.0;
78454;SPS30;67751;51.986;5.696;2024-01-15T06:12:07;1.3;1.2;1.0;0.8;;;;95.0;26.0;
78454;SPS30;67751;51.986;5.696;2024-01-15T06:14:37;1.6;1.5;1.3;1.0;;;;95.0;26.0;
78454;SPS30;67751;51.986;5.696;2024-01-15T06:17:08;1.4;1.3;1.1;0.9;;;;94.0;25.0;
78454;SPS30;67751;51.986;5.696;2024-01-15T06:19:38;1.3;1.2;1.1;0.8;;;;90.0;28.0;
78454;SPS30;67751;51.986;5.696;2024-01-15T06:22:07;1.4;1.3;1.1;0.9;;;;92.0;26.0;
78454;SPS30;67751;51.986;5.696;2024-01-15T06:24:37;1.5;1.4;1.3;1.0;;;;98.0;20.0;
78454;SPS30;67751;51.986;5.696;2024-01-15T06:27:08;1.4;1.4;1.2;1.0;;;;95.0;22.0;
78454;SPS30;67751;51.986;5.696;2024-01-15T06:29:38;1.9;1.8;1.6;1.3;;;;91.0;25.0;
78454;SPS30;67751;51.986;5.696;2024-01-15T06:32:08;2.4;2.3;2.1;1.7;;;;91.0;25.0;
78454;SPS30;67751;51.986;5.696;2024-01-15T06:34:37;1.6;1.5;1.4;1.2;;;;90.0;25.0;
78454;SPS30;67751;51.986;5.696;2024-01-15T06:37:07;1.5;1.4;1.4;1.2;;;;85.0;28.0;
78454;SPS30;67751;51.986;5.696;2024-01-15T06:39:36;2.0;1.9;1.9;1.7;;;;82.0;30.0;
78454;SPS30;67751;51.986;5.696;2024-01-15T06:42:06;1.6;1.5;1.5;1.4;;;;81.0;30.0;
78454;SPS30;67751;51.986;5.696;2024-01-15T06:44:36;2.1;2.0;2.0;1.9;;;;81.0;30.0;
78454;SPS30;67751;51.986;5.696;2024-01-15T06:47:05;2.3;2.3;2.3;2.1;;;;79.0;30.0;
78454;SPS30;67751;51.986;5.696;2024-01-15T06:49:35;3.0;3.0;3.0;2.8;;;;76.0;32.0;
78454;SPS30;67751;51.986;5.696;2024-01-15T06:52:05;2.5;2.5;2.5;2.3;;;;75.0;32.0;
78454;SPS30;67751;51.986;5.696;2024-01-15T06:54:35;2.9;2.9;2.9;2.8;;;;67.0;43.0;
78454;SPS30;67751;51.986;5.696;2024-01-15T06:57:05;3.0;3.0;3.0;2.8;;;;61.0;57.0;
78454;SPS30;67751;51.986;5.696;2024-01-15T06:59:35;3.0;3.0;3.0;2.9;;;;59.0;57.0;
78454;SPS30;67751;51.986;5.696;2024-01-15T07:02:05;4.4;4.4;4.4;4.2;;;;52.0;77.0;
78454;SPS30;67751;51.986;5.696;2024-01-15T07:04:34;3.7;3.7;3.7;3.6;;;;49.0;83.0;
78454;SPS30;67751;51.986;5.696;2024-01-15T07:07:04;5.0;5.0;5.0;4.8;;;;47.0;82.0;
78454;SPS30;67751;51.986;5.696;2024-01-15T07:09:34;3.9;3.9;3.9;3.7;;;;46.0;82.0;
78454;SPS30;67751;51.986;5.696;2024-01-15T07:12:04;3.6;3.6;3.6;3.5;;;;48.0;72.0;
78454;SPS30;67751;51.986;5.696;2024-01-15T07:14:33;3.8;3.8;3.8;3.7;;;;49.0;71.0;
78454;SPS30;67751;51.986;5.696;2024-01-15T07:17:03;3.6;3.6;3.6;3.4;;;;48.0;76.0;
78454;SPS30;67751;51.986;5.696;2024-01-15T07:19:33;3.2;3.2;3.2;3.0;;;;46.0;90.0;
78454;SPS30;67751;51.986;5.696;2024-01-15T07:22:03;3.8;3.8;3.8;3.6;;;;46.0;86.0;
78454;SPS30;67751;51.986;5.696;2024-01-15T07:24:33;3.7;3.7;3.7;3.5;;;;46.0;83.0;
78454;SPS30;67751;51.986;5.696;2024-01-15T07:27:03;3.9;3.9;3.9;3.7;;;;48.0;73.0;
78454;SPS30;67751;51.986;5.696;2024-01-15T07:29:33;3.0;3.0;3.0;2.9;;;;40.0;118.0;
78454;SPS30;67751;51.986;5.696;2024-01-15T07:32:05;3.5;3.5;3.5;3.4;;;;37.0;106.0;
78454;SPS30;67751;51.986;5.696;2024-01-15T07:34:34;3.3;3.3;3.3;3.1;;;;39.0;82.0;
78454;SPS30;67751;51.986;5.696;2024-01-15T07:37:04;2.8;2.8;2.8;2.7;;;;42.0;61.0;
78454;SPS30;67751;51.986;5.696;2024-01-15T07:39:34;2.7;2.7;2.7;2.6;;;;47.0;55.0;
78454;SPS30;67751;51.986;5.696;2024-01-15T07:42:04;2.8;2.8;2.8;2.7;;;;47.0;65.0;
78454;SPS30;67751;51.986;5.696;2024-01-15T07:44:34;2.9;2.9;2.9;2.8;;;;46.0;72.0;
78454;SPS30;67751;51.986;5.696;2024-01-15T07:47:04;3.1;3.1;3.1;2.9;;;;44.0;81.0;
78454;SPS30;67751;51.986;5.696;2024-01-15T07:49:35;3.7;3.7;3.7;3.6;;;;42.0;88.0;
78454;SPS30;67751;51.986;5.696;2024-01-15T07:52:05;2.8;2.8;2.8;2.6;;;;42.0;59.0;
78454;SPS30;67751;51.986;5.696;2024-01-15T07:54:35;2.6;2.6;2.6;2.5;;;;43.0;57.0;
78454;SPS30;67751;51.986;5.696;2024-01-15T07:57:06;2.6;2.6;2.6;2.5;;;;45.0;46.0;
78454;SPS30;67751;51.986;5.696;2024-01-15T07:59:36;2.4;2.4;2.4;2.2;;;;47.0;47.0;
78454;SPS30;67751;51.986;5.696;2024-01-15T08:02:06;2.3;2.3;2.3;2.2;;;;47.0;50.0;
78454;SPS30;67751;51.986;5.696;2024-01-15T08:04:35;2.4;2.4;2.4;2.3;;;;48.0;45.0;
78454;SPS30;67751;51.986;5.696;2024-01-15T08:07:05;2.2;2.2;2.2;2.1;;;;49.0;45.0;
78454;SPS30;67751;51.986;5.696;2024-01-15T08:09:36;2.2;2.2;2.2;2.1;;;;51.0;38.0;
78454;SPS30;67751;51.986;5.696;2024-01-15T08:12:06;1.6;1.6;1.6;1.5;;;;51.0;40.0;
78454;SPS30;67751;51.986;5.696;2024-01-15T08:14:37;2.4;2.4;2.4;2.3;;;;51.0;41.0;
78454;SPS30;67751;51.986;5.696;2024-01-15T08:17:06;2.1;2.1;2.1;2.0;;;;51.0;41.0;
78454;SPS30;67751;51.986;5.696;2024-01-15T08:19:36;2.3;2.3;2.3;2.2;;;;52.0;36.0;
78454;SPS30;67751;51.986;5.696;2024-01-15T08:22:08;2.8;2.8;2.8;2.6;;;;52.0;36.0;
78454;SPS30;67751;51.986;5.696;2024-01-15T08:24:38;2.3;2.3;2.3;2.2;;;;53.0;32.0;
78454;SPS30;67751;51.986;5.696;2024-01-15T08:27:07;3.4;3.4;3.4;3.3;;;;54.0;24.0;
78454;SPS30;67751;51.986;5.696;2024-01-15T08:29:37;3.5;3.5;3.5;3.4;;;;51.0;27.0;
78454;SPS30;67751;51.986;5.696;2024-01-15T08:32:07;3.5;3.5;3.5;3.4;;;;43.0;37.0;
78454;SPS30;67751;51.986;5.696;2024-01-15T08:34:41;3.3;3.3;3.3;3.2;;;;38.0;56.0;
78454;SPS30;67751;51.986;5.696;2024-01-15T08:37:11;2.9;2.9;2.9;2.8;;;;37.0;59.0;
78454;SPS30;67751;51.986;5.696;2024-01-15T08:39:40;2.7;2.7;2.7;2.5;;;;37.0;57.0;
78454;SPS30;67751;51.986;5.696;2024-01-15T08:42:10;3.0;3.0;3.0;2.8;;;;38.0;55.0;
78454;SPS30;67751;51.986;5.696;2024-01-15T08:44:39;2.8;2.8;2.8;2.7;;;;39.0;48.0;
78454;SPS30;67751;51.986;5.696;2024-01-15T08:47:10;3.2;3.2;3.2;3.0;;;;38.0;48.0;
78454;SPS30;67751;51.986;5.696;2024-01-15T08:49:40;3.1;3.1;3.1;2.9;;;;36.0;65.0;
78454;SPS30;67751;51.986;5.696;2024-01-15T08:52:10;3.2;3.2;3.2;3.0;;;;33.0;71.0;
78454;SPS30;67751;51.986;5.696;2024-01-15T08:54:40;3.2;3.2;3.2;3.1;;;;31.0;78.0;
78454;SPS30;67751;51.986;5.696;2024-01-15T08:57:10;2.9;2.9;2.9;2.7;;;;31.0;73.0;
78454;SPS30;67751;51.986;5.696;2024-01-15T08:59:40;3.2;3.2;3.2;3.1;;;;31.0;72.0;
78454;SPS30;67751;51.986;5.696;2024-01-15T09:02:10;2.6;2.6;2.6;2.5;;;;30.0;74.0;
78454;SPS30;67751;51.986;5.696;2024-01-15T09:04:42;3.1;3.1;3.1;2.9;;;;30.0;71.0;
78454;SPS30;67751;51.986;5.696;2024-01-15T09:07:11;3.6;3.6;3.6;3.4;;;;30.0;71.0;
78454;SPS30;67751;51.986;5.696;2024-01-15T09:09:41;3.1;3.1;3.1;3.0;;;;30.0;70.0;
78454;SPS30;67751;51.986;5.696;2024-01-15T09:12:11;3.7;3.7;3.7;3.6;;;;30.0;69.0;
78454;SPS30;67751;51.986;5.696;2024-01-15T09:14:42;3.7;3.7;3.7;3.5;;;;30.0;69.0;
78454;SPS30;67751;51.986;5.696;2024-01-15T09:17:12;3.6;3.6;3.6;3.5;;;;29.0;75.0;
78454;SPS30;67751;51.986;5.696;2024-01-15T09:19:42;3.8;3.8;3.8;3.6;;;;28.0;86.0;
78454;SPS30;67751;51.986;5.696;2024-01-15T09:22:11;3.7;3.7;3.7;3.5;;;;28.0;91.0;
78454;SPS30;67751;51.986;5.696;2024-01-15T09:24:41;3.4;3.4;3.4;3.2;;;;27.0;93.0;
78454;SPS30;67751;51.986;5.696;2024-01-15T09:27:11;3.3;3.3;3.3;3.1;;;;27.0;87.0;
78454;SPS30;67751;51.986;5.696;2024-01-15T09:29:41;2.8;2.8;2.8;2.7;;;;28.0;68.0;
78454;SPS30;67751;51.986;5.696;2024-01-15T09:32:12;2.4;2.4;2.4;2.3;;;;29.0;62.0;
78454;SPS30;67751;51.986;5.696;2024-01-15T09:34:43;2.2;2.2;2.2;2.1;;;;31.0;45.0;
78454;SPS30;67751;51.986;5.696;2024-01-15T09:37:13;2.9;2.9;2.9;2.8;;;;30.0;57.0;
78454;SPS30;67751;51.986;5.696;2024-01-15T09:39:43;2.4;2.4;2.4;2.3;;;;30.0;58.0;
78454;SPS30;67751;51.986;5.696;2024-01-15T09:42:13;1.8;1.8;1.8;1.7;;;;29.0;51.0;
78454;SPS30;67751;51.986;5.696;2024-01-15T09:44:44;1.5;1.5;1.5;1.4;;;;29.0;38.0;
78454;SPS30;67751;51.986;5.696;2024-01-15T09:47:14;1.4;1.3;1.3;1.2;;;;30.0;35.0;
78454;SPS30;67751;51.986;5.696;2024-01-15T09:49:45;1.8;1.8;1.8;1.7;;;;30.0;35.0;
78454;SPS30;67751;51.986;5.696;2024-01-15T09:52:15;1.5;1.5;1.5;1.4;;;;32.0;32.0;
78454;SPS30;67751;51.986;5.696;2024-01-15T09:54:47;1.2;1.2;1.1;1.1;;;;35.0;23.0;
78454;SPS30;67751;51.986;5.696;2024-01-15T09:57:18;1.1;1.1;1.1;1.0;;;;37.0;22.0;
78454;SPS30;67751;51.986;5.696;2024-01-15T09:59:49;1.1;1.1;1.1;1.0;;;;39.0;18.0;
78454;SPS30;67751;51.986;5.696;2024-01-15T10:02:21;0.9;0.9;0.9;0.8;;;;40.0;20.0;
78454;SPS30;67751;51.986;5.696;2024-01-15T10:04:51;1.3;1.2;1.2;1.1;;;;39.0;22.0;
78454;SPS30;67751;51.986;5.696;2024-01-15T10:07:22;1.5;1.5;1.4;1.3;;;;39.0;24.0;
78454;SPS30;67751;51.986;5.696;2024-01-15T10:09:55;1.4;1.4;1.3;1.2;;;;40.0;24.0;
78454;SPS30;67751;51.986;5.696;2024-01-15T10:12:25;1.7;1.6;1.5;1.4;;;;40.0;25.0;
78454;SPS30;67751;51.986;5.696;2024-01-15T10:14:57;1.7;1.6;1.5;1.3;;;;41.0;24.0;
78454;SPS30;67751;51.986;5.696;2024-01-15T10:17:27;1.7;1.7;1.6;1.4;;;;41.0;24.0;
78454;SPS30;67751;51.986;5.696;2024-01-15T10:19:58;1.4;1.4;1.3;1.2;;;;41.0;25.0;
78454;SPS30;67751;51.986;5.696;2024-01-15T10:22:28;1.7;1.7;1.6;1.4;;;;41.0;25.0;
78454;SPS30;67751;51.986;5.696;2024-01-15T10:24:57;1.7;1.7;1.5;1.3;;;;41.0;25.0;
78454;SPS30;67751;51.986;5.696;2024-01-15T10:27:27;3.0;2.9;2.8;2.4;;;;40.0;26.0;
78454;SPS30;67751;51.986;5.696;2024-01-15T10:29:57;1.9;1.8;1.7;1.4;;;;39.0;33.0;
78454;SPS30;67751;51.986;5.696;2024-01-15T10:32:29;2.5;2.4;2.2;1.9;;;;38.0;36.0;
78454;SPS30;67751;51.986;5.696;2024-01-15T10:34:59;2.8;2.8;2.6;2.3;;;;36.0;39.0;
78454;SPS30;67751;51.986;5.696;2024-01-15T10:37:33;2.6;2.6;2.5;2.3;;;;34.0;55.0;
78454;SPS30;67751;51.986;5.696;2024-01-15T10:40:03;2.9;2.9;2.8;2.6;;;;33.0;50.0;
78454;SPS30;67751;51.986;5.696;2024-01-15T10:42:34;3.5;3.5;3.5;3.3;;;;34.0;46.0;
78454;SPS30;67751;51.986;5.696;2024-01-15T10:45:04;3.0;3.0;3.0;2.9;;;;34.0;41.0;
78454;SPS30;67751;51.986;5.696;2024-01-15T10:47:36;3.1;3.1;3.1;2.9;;;;33.0;44.0;
78454;SPS30;67751;51.986;5.696;2024-01-15T10:50:06;3.1;3.1;3.1;3.0;;;;33.0;43.0;
78454;SPS30;67751;51.986;5.696;2024-01-15T10:52:38;3.1;3.1;3.1;2.9;;;;32.0;40.0;
78454;SPS30;67751;51.986;5.696;2024-01-15T10:55:10;3.2;3.2;3.2;3.1;;;;32.0;36.0;
78454;SPS30;67751;51.986;5.696;2024-01-15T10:57:40;2.7;2.7;2.7;2.5;;;;31.0;36.0;
78454;SPS30;67751;51.986;5.696;2024-01-15T11:00:10;2.9;2.9;2.9;2.7;;;;30.0;37.0;
78454;SPS30;67751;51.986;5.696;2024-01-15T11:02:42;2.8;2.8;2.8;2.6;;;;29.0;35.0;
78454;SPS30;67751;51.986;5.696;2024-01-15T11:05:12;2.6;2.6;2.6;2.5;;;;29.0;34.0;
78454;SPS30;67751;51.986;5.696;2024-01-15T11:07:44;3.0;3.0;3.0;2.9;;;;28.0;35.0;
78454;SPS30;67751;51.986;5.696;2024-01-15T11:13:15;2.2;2.2;2.1;2.0;;;;28.0;35.0;
78454;SPS30;67751;51.986;5.696;2024-01-15T11:15:59;2.5;2.5;2.4;2.3;;;;28.0;39.0;
78454;SPS30;67751;51.986;5.696;2024-01-15T11:18:31;3.3;3.3;3.3;3.1;;;;28.0;43.0;
78454;SPS30;67751;51.986;5.696;2024-01-15T11:21:22;2.3;2.3;2.3;2.2;;;;27.0;48.0;
78454;SPS30;67751;51.986;5.696;2024-01-15T11:23:55;2.9;2.9;2.8;2.7;;;;27.0;51.0;
78454;SPS30;67751;51.986;5.696;2024-01-15T11:26:33;2.7;2.7;2.6;2.5;;;;27.0;56.0;
78454;SPS30;67751;51.986;5.696;2024-01-15T11:29:06;2.9;2.9;2.8;2.7;;;;26.0;57.0;
78454;SPS30;67751;51.986;5.696;2024-01-15T11:37:29;11.5;11.4;11.1;10.3;;;;12.0;100.0;
78454;SPS30;67751;51.986;5.696;2024-01-15T11:40:40;5.4;5.3;5.3;5.0;;;;5.0;90.0;
78454;SPS30;67751;51.986;5.696;2024-01-15T11:43:13;3.8;3.8;3.8;3.6;;;;5.0;84.0;
78454;SPS30;67751;51.986;5.696;2024-01-15T11:45:47;2.7;2.7;2.7;2.5;;;;6.0;63.0;
78454;SPS30;67751;51.986;5.696;2024-01-15T11:48:21;2.0;2.0;2.0;1.8;;;;7.0;33.0;
78454;SPS30;67751;51.986;5.696;2024-01-15T11:50:54;2.7;2.7;2.5;2.3;;;;7.0;32.0;
78454;SPS30;67751;51.986;5.696;2024-01-15T11:53:32;2.4;2.3;2.2;1.9;;;;8.0;40.0;
78454;SPS30;67751;51.986;5.696;2024-01-15T11:56:06;2.6;2.5;2.2;1.9;;;;9.0;40.0;
78454;SPS30;67751;51.986;5.696;2024-01-15T11:58:41;2.2;2.1;1.9;1.6;;;;10.0;41.0;
78454;SPS30;67751;51.986;5.696;2024-01-15T12:01:12;3.0;2.9;2.6;2.1;;;;10.0;43.0;
78454;SPS30;67751;51.986;5.696;2024-01-15T12:03:42;2.6;2.4;2.2;1.8;;;;11.0;48.0;
78454;SPS30;67751;51.986;5.696;2024-01-15T12:06:16;2.7;2.6;2.3;1.8;;;;11.0;47.0;
78454;SPS30;67751;51.986;5.696;2024-01-15T12:08:46;3.3;3.1;2.8;2.2;;;;12.0;44.0;
78454;SPS30;67751;51.986;5.696;2024-01-15T12:11:15;3.3;3.1;2.7;2.1;;;;12.0;44.0;
78454;SPS30;67751;51.986;5.696;2024-01-15T12:13:50;4.3;4.0;3.5;2.7;;;;12.0;47.0;
78454;SPS30;67751;51.986;5.696;2024-01-15T12:16:22;2.8;2.7;2.3;1.8;;;;12.0;51.0;
78454;SPS30;67751;51.986;5.696;2024-01-15T12:18:52;3.2;3.0;2.5;1.9;;;;12.0;56.0;
78454;SPS30;67751;51.986;5.696;2024-01-15T12:21:22;3.0;2.8;2.5;1.9;;;;13.0;42.0;
78454;SPS30;67751;51.986;5.696;2024-01-15T12:23:52;2.3;2.2;1.9;1.5;;;;13.0;43.0;
78454;SPS30;67751;51.986;5.696;2024-01-15T12:26:21;2.4;2.3;2.0;1.6;;;;14.0;27.0;